• Join FlightAware (Why Join?)
  • Login
  • US Flag 
04:37PM EDT


 

Airport Tracker/Info


-or-


 

Live Flight TrackerFlight Track Log ✈ VNR104 ✈ 07-May-2013 ✈ KCVG - KIND

Flight Track Log - Related Links

Times and Time Zones

All times are in EDT time to prevent confusion due to time zone crossing. See the VNR104 flight status page for this flight to view local times or setup timezone preferences in your user account.

Time Position Orientation Groundspeed Altitude Reporting Facility
EDT Latitude Longitude Course Direction KTS MPH feet Rate Location/Type
05:10PM 39.0667 -84.7333 270° West 187 215 4,100  Level Cincinnati TRACON
05:11PM 39.0667 -84.7833 270° West 181 208 5,700 1,560 Climbing Cincinnati TRACON
05:12PM 39.0667 -84.8667 270° West 232 267 7,100 1,320 Climbing Cincinnati TRACON
05:13PM 39.0822 -84.9344 286° West 242 278 8,300 1,320 Climbing Indianapolis Center
05:14PM 39.1067 -85.0244 289° West 264 304 9,800 720 Climbing Indianapolis Center
05:15PM 39.1389 -85.1414 290° West 288 331 9,900 60 Climbing Indianapolis Center
05:16PM 39.1681 -85.2458 290° West 304 350 10,000  Climbing Indianapolis Center
05:17PM 39.1961 -85.3464 290° West 301 346 10,000  Level Indianapolis Center
05:18PM 39.2242 -85.4497 289° West 304 350 10,000  Level Indianapolis Center
05:19PM 39.2522 -85.5506 290° West 301 346 10,000  Level Indianapolis Center
05:20PM 39.2803 -85.6525 290° West 302 348 10,000  Level Indianapolis Center
05:21PM 39.3153 -85.7728 291° West 298 343 10,000  Level Indianapolis Center
05:22PM 39.3778 -85.8433 319° Northwest 300 345 10,000 -60 Level Indianapolis Center
05:23PM 39.4306 -85.9072 317° Northwest 268 308 9,900 -480 Descending Indianapolis Center
05:24PM 39.4897 -85.9781 317° Northwest 286 329 9,100 -1,380 Descending Indianapolis Center
05:25PM 39.5486 -86.0481 318° Northwest 289 333 7,100 -1,020 Descending Indianapolis Center
05:26PM 39.6019 -86.1125 317° Northwest 272 313 7,000 -240 Descending Indianapolis Center
05:27PM 39.6097 -86.1903 277° West 232 267 6,700 -1,380 Descending Indianapolis Center
05:28PM 39.5661 -86.2636 232° Southwest 249 287 4,200 -2,040 Descending Indianapolis Center
05:29PM 39.5967 -86.3308 301° West 239 275 2,500 -960 Descending Indianapolis Center
05:30PM 39.6500 -86.3500 345° North 167 192 2,300 -540 Descending Indianapolis TRACON
05:31PM 39.6833 -86.3333 21° North 121 139 1,400 -840 Descending Indianapolis TRACON
05:34PM 39.7167 -86.2833 123° Southeast  Level FlightAware Approximate